Time;durP1;ratioP1;P1;durP2;ratioP2;P2;SDS_P1;SDS_P2;PMS_P1;PMS_P2;Temp;Humidity;BMP_temperature;BMP_pressure;BME280_temperature;BME280_humidity;BME280_pressure;Samples;Min_cycle;Max_cycle;Signal;HPM_P1;HPM_P2
2022/08/27 00:01:20;;;;;;;4.25;2.88;;;25.20;62.40;26.00;100726.00;;;;5046830;28;20228;-44
2022/08/27 00:03:46;;;;;;;3.38;2.70;;;25.20;62.50;26.00;100780.00;;;;5046763;28;20858;-44
2022/08/27 00:06:14;;;;;;;3.35;2.88;;;25.20;62.70;26.00;100776.00;;;;5046504;28;20249;-41
2022/08/27 00:08:43;;;;;;;2.42;2.22;;;25.20;62.80;26.00;100771.00;;;;5045903;28;20194;-43
2022/08/27 00:11:09;;;;;;;2.45;2.22;;;25.20;62.50;26.00;100767.00;;;;5046320;28;20155;-45
2022/08/27 00:13:35;;;;;;;2.40;2.17;;;25.20;62.30;26.00;100770.00;;;;5046034;28;20190;-43
2022/08/27 00:16:05;;;;;;;2.30;2.10;;;25.20;62.40;26.00;100779.00;;;;5046344;28;20245;-42
2022/08/27 00:18:34;;;;;;;2.30;2.10;;;25.20;62.40;26.00;100774.00;;;;5045856;28;20548;-45
2022/08/27 00:21:01;;;;;;;3.03;2.50;;;25.30;62.50;26.00;100769.00;;;;5046185;28;20245;-45
2022/08/27 00:23:26;;;;;;;3.20;2.70;;;25.20;62.70;26.00;100766.00;;;;5045916;28;20249;-43
2022/08/27 00:25:52;;;;;;;3.03;2.55;;;25.20;62.70;26.00;100776.00;;;;5045822;28;20996;-44
2022/08/27 00:28:18;;;;;;;3.95;2.30;;;25.30;62.80;26.00;100766.00;;;;5045614;28;20269;-45
2022/08/27 00:30:43;;;;;;;2.65;2.45;;;25.30;62.50;26.00;100767.00;;;;5052542;28;20227;-44
2022/08/27 00:33:09;;;;;;;3.42;3.13;;;25.30;62.50;26.00;100757.00;;;;5046208;28;20190;-43
2022/08/27 00:35:36;;;;;;;2.75;2.50;;;25.20;62.70;26.00;100719.00;;;;5045780;28;20178;-43
2022/08/27 00:38:03;;;;;;;3.50;3.30;;;25.20;62.50;26.00;100768.00;;;;5049280;28;20169;-44
2022/08/27 00:40:29;;;;;;;3.33;3.03;;;25.20;62.70;26.00;100769.00;;;;5061537;28;20209;-46
2022/08/27 00:42:54;;;;;;;3.00;2.70;;;25.20;62.70;26.00;100773.00;;;;5051784;28;20170;-45
2022/08/27 00:45:21;;;;;;;4.13;3.20;;;25.20;62.60;26.00;100772.00;;;;5046382;28;20181;-43
2022/08/27 00:47:53;;;;;;;3.40;3.13;;;25.20;62.50;26.00;100777.00;;;;5045638;28;20868;-45
2022/08/27 00:50:37;;;;;;;3.90;3.60;;;25.20;62.60;26.00;100773.00;;;;5044843;28;20250;-43
2022/08/27 00:53:10;;;;;;;3.33;3.03;;;25.20;62.70;26.00;100779.00;;;;5045615;28;20185;-43
2022/08/27 00:55:46;;;;;;;3.55;3.25;;;25.20;62.40;25.90;100787.00;;;;5045331;28;20154;-43
2022/08/27 00:58:36;;;;;;;3.45;3.03;;;25.20;62.30;25.90;100775.00;;;;5044705;28;20227;-44
2022/08/27 01:01:05;;;;;;;4.30;2.80;;;25.10;62.50;25.90;100770.00;;;;5044755;28;20247;-43
2022/08/27 01:03:31;;;;;;;3.08;2.40;;;25.10;62.70;25.90;100776.00;;;;5045459;28;20534;-42
2022/08/27 01:05:57;;;;;;;5.35;2.70;;;25.10;62.60;25.90;100782.00;;;;5045514;28;20182;-47
2022/08/27 01:08:26;;;;;;;3.08;2.60;;;25.10;62.60;25.80;100781.00;;;;5044003;28;20847;-41
2022/08/27 01:10:52;;;;;;;3.90;2.40;;;25.00;63.00;25.80;100780.00;;;;5044282;28;20154;-44
2022/08/27 01:13:21;;;;;;;3.03;2.50;;;25.00;62.70;25.80;100778.00;;;;5044075;28;20274;-44
2022/08/27 01:15:47;;;;;;;3.88;2.40;;;24.90;62.70;25.70;100778.00;;;;5044395;28;20182;-43
2022/08/27 01:18:13;;;;;;;3.20;2.38;;;25.00;62.70;25.70;100773.00;;;;5043955;28;20734;-42
2022/08/27 01:20:59;;;;;;;2.85;2.40;;;25.00;62.70;25.70;100770.00;;;;5044455;28;20654;-43
2022/08/27 01:23:54;;;;;;;2.80;2.50;;;25.00;62.30;25.70;100778.00;;;;5045016;28;20164;-43
2022/08/27 01:26:19;;;;;;;4.03;2.40;;;25.00;62.50;25.70;100766.00;;;;5039631;28;20264;-43
2022/08/27 01:28:45;;;;;;;2.83;2.53;;;25.00;62.10;25.70;100770.00;;;;5043890;28;20273;-43
2022/08/27 01:31:11;;;;;;;3.08;2.47;;;25.00;62.30;25.70;100774.00;;;;5044300;28;20206;-43
2022/08/27 01:33:37;;;;;;;2.88;2.53;;;25.00;62.30;25.70;100776.00;;;;5046501;28;20190;-42
2022/08/27 01:36:03;;;;;;;3.25;2.50;;;25.00;62.30;25.70;100766.00;;;;5046694;28;20839;-44
2022/08/27 01:38:30;;;;;;;3.25;2.30;;;25.00;62.20;25.70;100766.00;;;;5046796;28;20237;-44
2022/08/27 01:40:56;;;;;;;3.65;2.47;;;25.00;61.90;25.70;100763.00;;;;5048185;28;20252;-43
2022/08/27 01:43:22;;;;;;;3.58;3.00;;;25.00;61.70;25.60;100763.00;;;;5049771;28;20250;-43
2022/08/27 01:45:49;;;;;;;3.80;2.90;;;24.80;61.80;25.60;100773.00;;;;5051865;28;20621;-44
2022/08/27 01:48:16;;;;;;;3.17;2.88;;;24.80;61.80;25.60;100765.00;;;;5049495;28;20190;-44
2022/08/27 01:50:42;;;;;;;5.05;2.90;;;24.80;61.90;25.50;100766.00;;;;5048859;28;20202;-43
2022/08/27 01:53:35;;;;;;;3.03;2.72;;;24.70;61.80;25.60;100767.00;;;;5048711;28;20182;-44
2022/08/27 01:56:01;;;;;;;5.50;4.07;;;24.70;61.70;25.50;100767.00;;;;5045150;28;20661;-45
2022/08/27 01:58:29;;;;;;;4.22;3.80;;;24.70;61.70;25.50;100764.00;;;;5048665;28;20227;-43
2022/08/27 02:00:58;;;;;;;3.95;3.60;;;24.70;61.90;25.50;100753.00;;;;5048691;28;20183;-44
2022/08/27 02:03:24;;;;;;;5.45;4.38;;;24.70;61.80;25.50;100757.00;;;;5047645;28;20198;-42
2022/08/27 02:05:50;;;;;;;5.82;4.20;;;24.80;61.60;25.50;100762.00;;;;5048721;28;20186;-44
2022/08/27 02:08:16;;;;;;;6.03;5.13;;;24.80;61.30;25.50;100754.00;;;;5046998;28;20548;-42
2022/08/27 02:10:43;;;;;;;5.45;4.95;;;24.70;61.40;25.50;100756.00;;;;5048293;28;20317;-43
2022/08/27 02:13:09;;;;;;;5.30;4.80;;;24.70;61.30;25.50;100758.00;;;;5048278;28;20186;-44
2022/08/27 02:15:35;;;;;;;6.50;5.88;;;24.70;61.20;25.50;100753.00;;;;5048248;28;20182;-44
2022/08/27 02:18:01;;;;;;;6.50;5.90;;;24.70;61.20;25.50;100745.00;;;;5047868;28;20162;-45
2022/08/27 02:20:27;;;;;;;6.97;6.35;;;24.80;61.30;25.50;100748.00;;;;5047379;28;20268;-44
2022/08/27 02:22:53;;;;;;;7.43;6.72;;;24.80;61.20;25.50;100743.00;;;;5048057;28;20225;-43
2022/08/27 02:25:19;;;;;;;8.95;8.05;;;24.80;61.20;25.50;100740.00;;;;5048363;28;20184;-42
2022/08/27 02:27:45;;;;;;;9.30;8.40;;;24.70;61.30;25.40;100739.00;;;;5047926;28;20273;-43
2022/08/27 02:30:13;;;;;;;9.93;9.00;;;24.60;61.70;25.40;100730.00;;;;5050370;28;20186;-43
2022/08/27 02:32:39;;;;;;;10.50;9.50;;;24.60;61.60;25.40;100728.00;;;;5063930;28;20557;-46
2022/08/27 02:35:06;;;;;;;10.00;9.10;;;24.50;61.60;25.30;100739.00;;;;5048143;28;20175;-42
2022/08/27 02:37:31;;;;;;;11.98;10.77;;;24.50;61.80;25.10;100742.00;;;;5046701;28;20175;-42
2022/08/27 02:39:57;;;;;;;12.13;10.95;;;24.50;61.90;25.30;100736.00;;;;5047845;28;20197;-41
2022/08/27 02:42:23;;;;;;;11.82;10.73;;;24.60;61.70;25.30;100750.00;;;;5047897;28;20168;-42
2022/08/27 02:44:48;;;;;;;11.30;10.20;;;24.50;61.70;25.30;100744.00;;;;5047982;28;20212;-44
2022/08/27 02:47:15;;;;;;;11.52;10.43;;;24.50;61.60;25.30;100742.00;;;;5047682;28;20177;-41
2022/08/27 02:49:41;;;;;;;11.65;10.65;;;24.50;61.70;25.30;100749.00;;;;5046810;28;20197;-43
2022/08/27 02:52:07;;;;;;;13.70;10.32;;;24.50;61.70;25.20;100747.00;;;;5048403;28;20170;-42
2022/08/27 02:54:33;;;;;;;11.02;10.07;;;24.50;61.90;25.20;100747.00;;;;5047803;28;20170;-42
2022/08/27 02:56:59;;;;;;;12.97;10.43;;;24.40;61.80;25.20;100740.00;;;;5047679;28;20166;-42
2022/08/27 02:59:24;;;;;;;11.30;10.20;;;24.40;62.00;25.20;100744.00;;;;5047521;28;20221;-44
2022/08/27 03:01:50;;;;;;;10.30;9.40;;;24.50;61.70;25.20;100737.00;;;;5047600;28;20172;-43
2022/08/27 03:04:18;;;;;;;9.77;8.52;;;24.50;61.50;25.20;100737.00;;;;5047662;28;20170;-42
2022/08/27 03:06:45;;;;;;;10.73;8.37;;;24.50;61.40;25.20;100737.00;;;;5047781;28;20170;-43
2022/08/27 03:09:11;;;;;;;10.43;8.70;;;24.40;61.40;25.20;100745.00;;;;5048675;28;20206;-44
2022/08/27 03:11:36;;;;;;;7.78;6.80;;;24.40;61.60;25.20;100739.00;;;;5048340;28;20174;-42
2022/08/27 03:14:02;;;;;;;8.18;7.38;;;24.40;61.50;25.20;100742.00;;;;5047967;28;20725;-42
2022/08/27 03:16:28;;;;;;;7.55;6.30;;;24.40;61.40;25.10;100740.00;;;;5047289;28;20659;-43
2022/08/27 03:18:54;;;;;;;7.72;5.90;;;24.40;61.50;25.10;100738.00;;;;5047170;28;20675;-42
2022/08/27 03:21:23;;;;;;;10.48;5.82;;;24.40;61.50;25.10;100744.00;;;;5047403;28;20169;-43
2022/08/27 03:23:50;;;;;;;7.53;5.45;;;24.40;61.70;25.10;100743.00;;;;5046152;28;20189;-44
2022/08/27 03:26:16;;;;;;;6.15;4.88;;;24.40;61.70;25.10;100738.00;;;;5047201;28;20324;-42
2022/08/27 03:28:42;;;;;;;7.17;4.90;;;24.40;61.50;25.10;100742.00;;;;5046881;28;20552;-41
2022/08/27 03:31:14;;;;;;;5.57;4.67;;;24.40;61.60;25.10;100747.00;;;;5046981;28;20178;-41
2022/08/27 03:33:40;;;;;;;6.68;4.72;;;24.40;61.60;25.10;100736.00;;;;5047234;28;20230;-41
2022/08/27 03:36:07;;;;;;;6.30;4.28;;;24.40;61.50;25.10;100737.00;;;;5047143;28;20205;-44
2022/08/27 03:38:34;;;;;;;7.40;4.57;;;24.40;61.70;25.10;100744.00;;;;5047104;28;20201;-44
2022/08/27 03:41:01;;;;;;;5.73;4.10;;;24.30;61.60;25.00;100740.00;;;;5047168;28;20178;-44
2022/08/27 03:43:27;;;;;;;6.53;4.57;;;24.20;61.90;25.00;100743.00;;;;5046807;28;20245;-42
2022/08/27 03:45:53;;;;;;;6.07;4.33;;;24.20;61.90;25.00;100739.00;;;;5046439;28;20585;-41
2022/08/27 03:48:19;;;;;;;12.67;4.63;;;24.20;61.90;25.00;100736.00;;;;5045473;28;20190;-42
2022/08/27 03:50:46;;;;;;;13.55;4.70;;;24.20;62.70;25.00;100732.00;;;;5046438;28;20177;-43
2022/08/27 03:53:13;;;;;;;9.03;4.33;;;24.20;62.00;24.90;100731.00;;;;5046605;28;20680;-40
2022/08/27 03:55:40;;;;;;;7.10;5.00;;;24.20;62.10;24.90;100725.00;;;;5046381;28;20476;-44
2022/08/27 03:58:06;;;;;;;8.73;5.37;;;24.10;62.10;24.80;100727.00;;;;5046001;28;20185;-43
2022/08/27 04:00:32;;;;;;;11.03;6.40;;;24.10;62.30;24.80;100726.00;;;;5051525;28;20166;-42
2022/08/27 04:02:58;;;;;;;7.60;6.30;;;24.00;62.40;24.80;100732.00;;;;5052882;28;20174;-44
2022/08/27 04:05:23;;;;;;;10.27;7.00;;;23.90;62.30;24.70;100728.00;;;;5048722;28;20263;-44
2022/08/27 04:07:49;;;;;;;9.37;5.80;;;23.90;62.20;24.60;100722.00;;;;5046662;28;20178;-42
2022/08/27 04:10:16;;;;;;;10.53;5.80;;;23.90;62.50;24.60;100728.00;;;;5055476;28;20205;-42
2022/08/27 04:12:42;;;;;;;7.53;5.17;;;23.90;62.40;24.70;100731.00;;;;5046189;28;20186;-41
2022/08/27 04:15:09;;;;;;;8.07;4.90;;;24.00;62.00;24.70;100736.00;;;;5046052;28;20228;-43
2022/08/27 04:17:35;;;;;;;8.30;4.90;;;24.10;61.60;24.60;100748.00;;;;5045686;28;20642;-42
2022/08/27 04:20:01;;;;;;;8.67;4.93;;;24.20;61.20;24.80;100744.00;;;;5060291;28;20186;-42
2022/08/27 04:22:27;;;;;;;9.27;4.70;;;24.20;60.80;24.80;100746.00;;;;5051399;28;20189;-41
2022/08/27 04:24:53;;;;;;;6.30;4.63;;;24.30;60.70;24.80;100756.00;;;;5046130;28;20344;-42
2022/08/27 04:27:19;;;;;;;7.37;4.90;;;24.30;60.50;24.90;100748.00;;;;5046317;28;20227;-42
2022/08/27 04:29:45;;;;;;;6.97;5.15;;;24.40;60.50;24.90;100756.00;;;;5045785;28;20182;-43
2022/08/27 04:32:11;;;;;;;5.83;4.87;;;24.30;60.30;24.90;100750.00;;;;5046020;28;20162;-41
2022/08/27 04:34:37;;;;;;;8.17;4.60;;;24.30;60.30;24.90;100754.00;;;;5049148;28;20167;-41
2022/08/27 04:37:03;;;;;;;6.00;4.70;;;24.40;60.20;24.90;100722.00;;;;5047981;28;20647;-42
2022/08/27 04:39:29;;;;;;;5.10;4.07;;;24.40;60.20;24.90;100764.00;;;;5049210;28;20189;-42
2022/08/27 04:41:58;;;;;;;5.53;4.33;;;24.40;60.00;25.00;100758.00;;;;5063095;28;20435;-44
2022/08/27 04:44:25;;;;;;;5.17;4.37;;;24.40;59.90;25.00;100763.00;;;;5055618;28;20566;-42
2022/08/27 04:46:56;;;;;;;6.77;4.60;;;24.40;59.90;25.00;100763.00;;;;5046990;28;20177;-43
2022/08/27 04:49:22;;;;;;;5.67;4.90;;;24.40;59.70;25.00;100768.00;;;;5028092;28;20221;-43
2022/08/27 04:51:48;;;;;;;7.03;4.73;;;24.40;59.80;25.00;100761.00;;;;5045784;28;20529;-43
2022/08/27 04:54:14;;;;;;;6.07;4.80;;;24.40;59.60;25.00;100767.00;;;;5045223;28;20194;-43
2022/08/27 04:56:40;;;;;;;5.80;4.70;;;24.40;59.60;25.00;100770.00;;;;5045487;28;20193;-43
2022/08/27 04:59:07;;;;;;;6.25;4.57;;;24.40;60.30;25.00;100766.00;;;;5045042;28;20195;-44
2022/08/27 05:01:33;;;;;;;5.13;4.57;;;24.40;59.60;25.00;100773.00;;;;5044650;28;20186;-42
2022/08/27 05:03:59;;;;;;;5.13;4.63;;;24.40;59.60;25.00;100759.00;;;;5044975;28;20174;-41
2022/08/27 05:06:25;;;;;;;7.60;4.50;;;24.40;59.70;25.00;100757.00;;;;5045956;28;20174;-42
2022/08/27 05:08:51;;;;;;;4.40;4.00;;;24.40;59.60;25.00;100764.00;;;;5044817;28;20428;-42
2022/08/27 05:11:18;;;;;;;6.47;4.07;;;24.40;59.60;25.00;100770.00;;;;5045065;28;20165;-42
2022/08/27 05:13:44;;;;;;;8.07;4.30;;;24.40;59.60;25.00;100772.00;;;;5047254;28;20283;-42
2022/08/27 05:16:13;;;;;;;6.03;4.23;;;24.40;59.60;25.00;100778.00;;;;5049374;28;20249;-41
2022/08/27 05:18:39;;;;;;;5.55;3.90;;;24.40;59.60;25.00;100778.00;;;;5048813;28;20191;-44
2022/08/27 05:21:05;;;;;;;6.53;3.58;;;24.40;59.60;25.00;100775.00;;;;5049227;28;20166;-42
2022/08/27 05:23:32;;;;;;;6.60;3.78;;;24.40;59.60;25.00;100787.00;;;;5047878;28;20220;-41
2022/08/27 05:25:58;;;;;;;6.93;3.90;;;24.40;59.60;25.00;100782.00;;;;5049390;28;20201;-43
2022/08/27 05:28:25;;;;;;;6.35;4.10;;;24.40;59.60;25.00;100796.00;;;;5049133;28;20198;-44
2022/08/27 05:30:52;;;;;;;6.53;3.75;;;24.40;59.50;25.00;100783.00;;;;5048931;28;20203;-43
2022/08/27 05:33:22;;;;;;;4.40;3.55;;;24.40;59.60;25.00;100784.00;;;;5049116;28;20336;-42
2022/08/27 05:35:50;;;;;;;6.65;3.95;;;24.40;59.30;25.00;100785.00;;;;5049175;28;20210;-43
2022/08/27 05:38:17;;;;;;;5.43;3.80;;;24.40;59.30;25.00;100780.00;;;;5048829;28;20206;-41
2022/08/27 05:40:43;;;;;;;4.10;3.70;;;24.40;59.40;25.00;100787.00;;;;5048662;28;20647;-40
2022/08/27 05:43:10;;;;;;;3.72;3.40;;;24.40;59.30;25.00;100779.00;;;;5049089;28;20184;-43
2022/08/27 05:45:40;;;;;;;4.38;3.45;;;24.40;59.30;25.00;100788.00;;;;5048732;28;20217;-42
2022/08/27 05:48:07;;;;;;;4.10;3.70;;;24.40;59.30;25.00;100784.00;;;;5047534;28;20178;-43
2022/08/27 05:50:32;;;;;;;4.72;3.47;;;24.40;59.20;25.00;100776.00;;;;5048602;28;20574;-43
2022/08/27 05:52:58;;;;;;;4.00;3.53;;;24.40;59.20;25.00;100786.00;;;;5047489;28;20265;-43
2022/08/27 05:55:24;;;;;;;4.30;3.60;;;24.40;59.20;25.00;100787.00;;;;5048605;28;20691;-42
2022/08/27 05:57:50;;;;;;;4.10;3.47;;;24.40;59.30;25.00;100780.00;;;;5048717;28;20174;-41
2022/08/27 06:03:00;;;;;;;4.15;3.30;;;24.40;59.20;25.00;100784.00;;;;5049086;28;20172;-43
2022/08/27 06:05:25;;;;;;;4.70;3.40;;;24.40;59.20;24.90;100784.00;;;;5048780;28;20170;-43
2022/08/27 06:07:51;;;;;;;4.97;3.28;;;24.40;59.20;25.00;100784.00;;;;5048370;28;20581;-43
2022/08/27 06:10:17;;;;;;;3.60;3.30;;;24.40;59.20;24.90;100726.00;;;;5048235;28;20298;-42
2022/08/27 06:12:42;;;;;;;4.10;3.33;;;24.40;59.20;24.90;100791.00;;;;5048500;28;20182;-41
2022/08/27 06:15:09;;;;;;;3.53;3.05;;;24.40;59.20;24.90;100788.00;;;;5062091;28;20182;-43
2022/08/27 06:17:34;;;;;;;3.25;2.95;;;24.40;59.20;24.90;100787.00;;;;5057720;28;20193;-43
2022/08/27 06:20:00;;;;;;;4.43;3.28;;;24.40;59.20;24.90;100802.00;;;;5048178;28;20678;-43
2022/08/27 06:22:26;;;;;;;4.13;3.20;;;24.40;59.20;24.90;100789.00;;;;5048414;28;20178;-43
2022/08/27 06:24:52;;;;;;;3.20;2.90;;;24.40;59.20;24.90;100795.00;;;;5047109;28;20227;-43
2022/08/27 06:27:19;;;;;;;3.72;3.10;;;24.40;59.20;24.90;100792.00;;;;5047036;28;20170;-42
2022/08/27 06:29:45;;;;;;;4.60;3.10;;;24.40;59.30;24.90;100797.00;;;;5048261;28;20198;-43
2022/08/27 06:32:11;;;;;;;3.28;3.00;;;24.40;59.30;24.90;100791.00;;;;5047977;28;20189;-42
2022/08/27 06:34:37;;;;;;;3.30;2.80;;;24.40;59.20;24.80;100803.00;;;;5047101;28;20214;-42
2022/08/27 06:37:04;;;;;;;3.73;3.00;;;24.40;59.30;24.90;100801.00;;;;5048152;28;20178;-42
2022/08/27 06:39:30;;;;;;;3.30;3.00;;;24.40;59.20;24.90;100811.00;;;;5046262;28;20190;-42
2022/08/27 06:41:56;;;;;;;4.07;3.00;;;24.30;59.20;24.60;100802.00;;;;5046549;28;20175;-42
2022/08/27 06:44:23;;;;;;;3.53;3.13;;;24.30;59.30;24.80;100809.00;;;;5048190;28;20600;-41
2022/08/27 06:46:49;;;;;;;4.30;2.85;;;24.30;59.20;24.80;100797.00;;;;5047487;28;20185;-43
2022/08/27 06:49:14;;;;;;;3.20;2.90;;;24.30;59.20;24.80;100802.00;;;;5046155;28;20190;-43
2022/08/27 06:51:44;;;;;;;2.80;2.60;;;24.30;59.20;24.80;100814.00;;;;5047303;28;20167;-42
2022/08/27 06:54:11;;;;;;;3.65;2.97;;;24.30;59.30;24.80;100806.00;;;;5046202;28;20344;-42
2022/08/27 06:56:36;;;;;;;3.53;2.83;;;24.30;59.20;24.80;100802.00;;;;5047572;28;20695;-42
2022/08/27 06:59:06;;;;;;;3.10;2.80;;;24.30;59.30;24.80;100807.00;;;;5045957;28;20187;-43
2022/08/27 07:01:36;;;;;;;3.27;2.90;;;24.30;59.30;24.80;100797.00;;;;5047320;28;20178;-42
2022/08/27 07:04:07;;;;;;;4.17;2.77;;;24.30;59.30;24.80;100797.00;;;;5047606;28;20536;-42
2022/08/27 07:06:33;;;;;;;2.63;2.40;;;24.30;59.30;24.80;100800.00;;;;5046338;28;20180;-44
2022/08/27 07:08:59;;;;;;;3.00;2.67;;;24.30;59.20;24.80;100804.00;;;;5046732;28;20202;-42
2022/08/27 07:11:27;;;;;;;2.90;2.60;;;24.30;59.20;24.80;100793.00;;;;5046761;28;20201;-43
2022/08/27 07:13:53;;;;;;;3.00;2.70;;;24.30;59.20;24.80;100797.00;;;;5029748;28;20252;-42
2022/08/27 07:16:22;;;;;;;2.87;2.67;;;24.30;59.20;24.80;100795.00;;;;5046994;28;20707;-40
2022/08/27 07:18:50;;;;;;;2.80;2.60;;;24.30;59.30;24.80;100804.00;;;;5046577;28;20788;-41
2022/08/27 07:21:18;;;;;;;2.83;2.40;;;24.30;59.20;24.70;100796.00;;;;5046718;28;20197;-42
2022/08/27 07:23:44;;;;;;;2.80;2.60;;;24.20;59.30;24.70;100792.00;;;;5055021;28;20201;-43
2022/08/27 07:26:11;;;;;;;2.92;2.60;;;24.20;59.20;24.70;100790.00;;;;5050213;28;20175;-42
2022/08/27 07:28:38;;;;;;;3.10;2.80;;;24.20;59.30;24.70;100785.00;;;;5047285;28;20195;-41
2022/08/27 07:31:07;;;;;;;2.75;2.50;;;24.20;59.30;24.70;100784.00;;;;5044782;28;20174;-43
2022/08/27 07:33:36;;;;;;;2.83;2.63;;;24.20;59.40;24.70;100797.00;;;;5045589;28;20190;-46
2022/08/27 07:36:04;;;;;;;2.90;2.70;;;24.20;59.30;24.70;100790.00;;;;5046533;28;20193;-43
2022/08/27 07:38:29;;;;;;;2.80;2.50;;;24.20;59.40;24.70;100792.00;;;;5046119;28;20814;-42
2022/08/27 07:40:55;;;;;;;3.17;2.80;;;24.20;59.40;24.70;100792.00;;;;5046050;28;20163;-43
2022/08/27 07:46:05;;;;;;;2.80;2.50;;;24.20;59.30;24.70;100797.00;;;;5046431;28;20233;-42
2022/08/27 07:48:33;;;;;;;9.77;2.90;;;24.20;59.40;24.60;100798.00;;;;5046221;28;20663;-42
2022/08/27 07:51:02;;;;;;;4.17;2.83;;;24.10;59.60;24.60;100794.00;;;;5046587;28;20163;-42
2022/08/27 07:53:27;;;;;;;3.47;2.70;;;24.10;59.40;24.60;100799.00;;;;5046580;28;20178;-41
2022/08/27 07:55:53;;;;;;;3.33;2.60;;;24.10;59.30;24.60;100801.00;;;;5046510;28;20209;-44
2022/08/27 07:58:19;;;;;;;3.13;2.80;;;24.10;59.40;24.60;100808.00;;;;4994429;28;20220;-42
2022/08/27 08:00:45;;;;;;;3.10;2.70;;;24.10;59.40;24.60;100810.00;;;;5065720;28;20173;-41
2022/08/27 08:03:11;;;;;;;4.57;3.00;;;24.10;59.40;24.60;100809.00;;;;5079767;28;20249;-45
2022/08/27 08:05:47;;;;;;;3.60;2.90;;;24.10;59.60;24.60;100801.00;;;;5074322;28;20699;-42
2022/08/27 08:08:13;;;;;;;3.72;3.00;;;24.10;59.70;24.60;100808.00;;;;5086276;28;20735;-44
2022/08/27 08:10:39;;;;;;;5.07;2.87;;;24.10;59.80;24.60;100809.00;;;;5086002;28;20192;-42
2022/08/27 08:13:06;;;;;;;3.20;2.87;;;24.10;59.80;24.60;100806.00;;;;5085214;28;20239;-43
2022/08/27 08:15:33;;;;;;;5.07;2.90;;;24.10;59.80;24.60;100818.00;;;;5080189;28;20626;-41
2022/08/27 08:17:59;;;;;;;3.43;2.70;;;24.10;59.90;24.60;100815.00;;;;5066088;28;20173;-44
2022/08/27 08:20:24;;;;;;;3.27;2.80;;;24.10;59.90;24.60;100819.00;;;;5060101;28;20545;-42
2022/08/27 08:22:50;;;;;;;4.07;2.90;;;24.10;59.70;24.60;100819.00;;;;5058358;28;20182;-42
2022/08/27 08:25:16;;;;;;;3.07;2.77;;;24.10;59.80;24.60;100817.00;;;;5069203;28;20187;-42
2022/08/27 08:27:42;;;;;;;3.63;2.93;;;24.10;59.90;24.60;100828.00;;;;5066852;28;20166;-44
2022/08/27 08:30:09;;;;;;;15.77;3.13;;;24.00;59.70;24.60;100821.00;;;;5050142;28;20223;-42
2022/08/27 08:32:35;;;;;;;8.23;3.10;;;23.90;60.70;24.50;100818.00;;;;5046919;28;20186;-43
2022/08/27 08:35:01;;;;;;;5.77;2.90;;;23.90;60.20;24.50;100821.00;;;;5046281;28;20240;-41
2022/08/27 08:37:27;;;;;;;4.07;2.80;;;23.90;60.00;24.50;100824.00;;;;5054950;28;20743;-41
2022/08/27 08:39:53;;;;;;;3.73;2.67;;;23.90;60.30;24.50;100824.00;;;;5062007;28;20205;-43
2022/08/27 08:42:29;;;;;;;3.60;2.90;;;23.90;60.40;24.50;100821.00;;;;5062512;28;20193;-43
2022/08/27 08:44:56;;;;;;;3.03;2.60;;;23.90;60.50;24.50;100824.00;;;;5054341;28;20181;-41
2022/08/27 08:48:09;;;;;;;2.95;2.60;;;23.90;60.40;24.50;100833.00;;;;5036982;28;20173;-42
2022/08/27 08:50:40;;;;;;;3.23;2.60;;;23.90;60.50;24.50;100839.00;;;;5056136;28;20173;-41
2022/08/27 08:53:30;;;;;;;4.60;3.10;;;23.90;60.40;24.50;100826.00;;;;5064968;28;20189;-42
2022/08/27 08:56:00;;;;;;;4.63;2.70;;;23.90;60.50;24.50;100831.00;;;;5084581;28;20165;-42
2022/08/27 08:58:37;;;;;;;3.50;2.70;;;23.90;60.50;24.50;100831.00;;;;4949500;28;20198;-41
2022/08/27 09:01:04;;;;;;;3.83;2.63;;;23.90;60.50;24.50;100850.00;;;;5047193;28;20165;-41
2022/08/27 09:03:34;;;;;;;3.23;2.90;;;23.90;60.50;24.50;100838.00;;;;5052000;28;20661;-42
2022/08/27 09:06:07;;;;;;;4.97;3.03;;;23.80;60.30;24.50;100816.00;;;;5054135;28;20722;-41
2022/08/27 09:08:39;;;;;;;3.00;2.70;;;23.80;60.90;24.50;100844.00;;;;5043272;28;20259;-43
2022/08/27 09:11:06;;;;;;;3.73;2.80;;;23.80;60.70;24.40;100845.00;;;;5045405;28;20155;-41
2022/08/27 09:13:38;;;;;;;4.87;2.90;;;23.80;60.70;24.40;100847.00;;;;5045218;28;20713;-41
2022/08/27 09:16:04;;;;;;;3.37;2.60;;;23.80;60.60;24.40;100854.00;;;;5044972;28;20236;-41
2022/08/27 09:18:30;;;;;;;3.43;2.70;;;23.80;60.70;24.40;100849.00;;;;5045383;28;20194;-41
2022/08/27 09:21:28;;;;;;;4.67;3.10;;;23.80;60.80;24.40;100857.00;;;;5043967;28;20257;-41
2022/08/27 09:24:05;;;;;;;3.20;2.83;;;23.80;60.70;24.40;100855.00;;;;5045800;28;20155;-42
2022/08/27 09:26:35;;;;;;;4.83;2.90;;;23.70;60.70;24.40;100848.00;;;;5045306;28;20223;-42
2022/08/27 09:29:20;;;;;;;5.10;3.27;;;23.70;60.70;24.40;100862.00;;;;5044367;28;20194;-41
2022/08/27 09:31:57;;;;;;;5.93;3.00;;;23.70;60.80;24.40;100866.00;;;;5047448;28;20185;-41
2022/08/27 09:34:24;;;;;;;3.17;2.80;;;23.80;61.10;24.40;100854.00;;;;5085392;28;20600;-42
2022/08/27 09:36:52;;;;;;;4.90;3.13;;;23.80;60.90;24.40;100837.00;;;;5085424;28;20302;-43
2022/08/27 09:39:18;;;;;;;3.30;2.90;;;23.80;61.30;24.50;100852.00;;;;5084178;28;20181;-41
2022/08/27 09:41:48;;;;;;;3.50;3.10;;;23.80;61.20;24.50;100844.00;;;;5085324;28;20192;-41
2022/08/27 09:44:17;;;;;;;3.53;3.20;;;23.80;61.30;24.50;100854.00;;;;5067230;28;20179;-42
2022/08/27 09:46:58;;;;;;;6.13;2.90;;;23.80;60.90;24.50;100852.00;;;;5084271;28;20177;-43
2022/08/27 09:49:25;;;;;;;4.33;3.00;;;23.90;61.30;24.50;100862.00;;;;5085144;28;20228;-42
2022/08/27 09:51:51;;;;;;;4.27;2.80;;;23.80;60.60;24.50;100859.00;;;;5063670;28;20578;-41
2022/08/27 09:54:37;;;;;;;5.93;2.80;;;23.90;60.70;24.60;100855.00;;;;5064117;28;20201;-42
2022/08/27 09:57:04;;;;;;;4.23;2.90;;;24.00;60.40;24.60;100845.00;;;;5017745;28;20255;-43
2022/08/27 09:59:35;;;;;;;4.13;2.80;;;24.00;60.00;24.70;100858.00;;;;5065991;28;20240;-42
2022/08/27 10:02:20;;;;;;;6.73;3.03;;;24.00;60.00;24.70;100864.00;;;;5067377;28;20158;-42
2022/08/27 10:04:59;;;;;;;7.53;3.15;;;23.90;60.70;24.70;100864.00;;;;5051153;28;20299;-42
2022/08/27 10:07:52;;;;;;;5.50;2.93;;;24.00;60.70;24.70;100860.00;;;;5052565;28;20576;-42
2022/08/27 10:10:56;;;;;;;8.13;3.00;;;24.00;60.50;24.70;100860.00;;;;5050522;28;20251;-43
2022/08/27 10:13:50;;;;;;;7.25;2.83;;;24.00;60.10;24.70;100864.00;;;;5066930;28;20215;-42
2022/08/27 10:17:06;;;;;;;3.10;2.73;;;24.00;60.00;24.70;100870.00;;;;5068044;28;20150;-43
2022/08/27 10:19:56;;;;;;;5.45;2.58;;;23.90;59.90;24.70;100876.00;;;;5067237;28;20185;-42
2022/08/27 10:23:18;;;;;;;4.00;2.57;;;23.90;60.00;24.70;100859.00;;;;5067520;28;20584;-42
2022/08/27 10:25:47;;;;;;;3.07;2.63;;;23.90;60.00;24.60;100863.00;;;;5033113;28;20227;-43
2022/08/27 10:28:44;;;;;;;3.63;2.60;;;23.90;60.10;24.60;100867.00;;;;5071266;28;20420;-42
2022/08/27 10:32:05;;;;;;;3.97;2.60;;;23.90;60.50;24.60;100865.00;;;;5066635;28;20164;-42
2022/08/27 10:34:46;;;;;;;2.78;2.50;;;23.90;60.30;24.60;100859.00;;;;5062357;28;20694;-43
2022/08/27 10:37:27;;;;;;;3.17;2.30;;;23.90;60.00;24.60;100862.00;;;;5068948;28;20168;-43
2022/08/27 10:40:07;;;;;;;3.23;2.50;;;23.90;60.00;24.60;100860.00;;;;5050305;28;20255;-42
2022/08/27 10:42:57;;;;;;;3.23;2.47;;;23.90;60.00;24.60;100862.00;;;;5067012;28;20181;-42
2022/08/27 10:45:49;;;;;;;3.47;2.40;;;23.90;60.00;24.60;100866.00;;;;5066919;28;20158;-43
2022/08/27 10:48:32;;;;;;;3.13;2.40;;;23.80;60.20;24.60;100849.00;;;;5056013;28;20174;-43
2022/08/27 10:51:21;;;;;;;2.93;2.30;;;23.80;60.20;24.60;100869.00;;;;5060045;28;20552;-42
2022/08/27 10:54:08;;;;;;;5.57;2.60;;;23.80;59.80;24.60;100860.00;;;;5071694;28;20189;-44
2022/08/27 10:56:55;;;;;;;3.57;2.60;;;23.90;60.10;24.60;100862.00;;;;5035929;28;20261;-43
2022/08/27 10:59:45;;;;;;;3.72;2.30;;;23.80;59.90;24.60;100854.00;;;;5052361;28;20254;-43
2022/08/27 11:02:34;;;;;;;3.47;2.40;;;23.90;60.00;24.60;100859.00;;;;5051047;28;20150;-43